createdAt,value
2019-04-16T00:01:39.329Z,39.78
2019-04-16T00:04:27.493Z,39.65
2019-04-16T00:07:15.865Z,39.25
2019-04-16T00:09:52.889Z,40.02
2019-04-16T00:12:41.014Z,40.25
2019-04-16T00:15:10.484Z,40.14
2019-04-16T00:17:44.356Z,40.04
2019-04-16T00:20:13.594Z,40.48
2019-04-16T00:22:50.583Z,40.79
2019-04-16T00:25:19.980Z,40.80
2019-04-16T00:27:50.444Z,40.54
2019-04-16T00:30:19.963Z,40.15
2019-04-16T00:32:50.380Z,40.31
2019-04-16T00:35:24.377Z,40.37
2019-04-16T00:37:56.463Z,40.82
2019-04-16T00:40:26.619Z,40.49
2019-04-16T00:43:00.921Z,39.54
2019-04-16T00:45:31.548Z,40.45
2019-04-16T00:48:03.472Z,39.91
2019-04-16T00:50:34.014Z,40.25
2019-04-16T00:53:07.638Z,39.25
2019-04-16T00:55:35.678Z,39.44
2019-04-16T00:58:06.424Z,40.44
2019-04-16T01:00:38.052Z,38.21
2019-04-16T01:03:08.425Z,37.99
2019-04-16T01:05:40.656Z,37.47
2019-04-16T01:08:11.049Z,38.89
2019-04-16T01:10:40.401Z,38.77
2019-04-16T01:13:09.798Z,40.39
2019-04-16T01:15:40.158Z,40.97
2019-04-16T01:18:09.540Z,41.18
2019-04-16T01:20:40.396Z,41.14
2019-04-16T01:23:12.002Z,41.77
2019-04-16T01:25:41.363Z,41.23
2019-04-16T01:28:16.498Z,41.42
2019-04-16T01:31:06.907Z,41.51
2019-04-16T01:33:56.670Z,41.80
2019-04-16T01:36:30.925Z,42.28
2019-04-16T01:39:15.972Z,42.51
2019-04-16T01:41:35.081Z,42.60
2019-04-16T01:44:05.810Z,43.24
2019-04-16T01:46:35.207Z,43.21
2019-04-16T01:49:09.795Z,42.92
2019-04-16T01:51:37.884Z,43.25
2019-04-16T01:54:09.835Z,42.59
2019-04-16T01:56:40.331Z,42.81
2019-04-16T01:59:10.754Z,43.44
2019-04-16T02:01:43.364Z,42.99
2019-04-16T02:04:13.544Z,43.80
2019-04-16T02:06:43.854Z,43.26
2019-04-16T02:09:22.355Z,43.36
2019-04-16T02:11:46.215Z,43.77
2019-04-16T02:14:18.438Z,43.72
2019-04-16T02:16:48.828Z,43.26
2019-04-16T02:19:19.310Z,43.57
2019-04-16T02:21:49.714Z,43.68
2019-04-16T02:24:19.458Z,43.81
2019-04-16T02:26:54.568Z,43.57
2019-04-16T02:29:22.080Z,43.67
2019-04-16T02:31:52.542Z,44.04
2019-04-16T02:34:22.214Z,44.36
2019-04-16T02:36:52.567Z,44.07
2019-04-16T02:39:46.254Z,44.80
2019-04-16T02:41:58.087Z,45.10
2019-04-16T02:44:28.492Z,45.27
2019-04-16T02:47:05.089Z,45.07
2019-04-16T02:49:34.205Z,44.76
2019-04-16T02:52:21.217Z,45.10
2019-04-16T02:54:53.194Z,44.98
2019-04-16T02:57:26.622Z,45.10
2019-04-16T02:59:59.054Z,44.98
2019-04-16T03:02:45.603Z,44.42
2019-04-16T03:05:18.626Z,45.12
2019-04-16T03:07:49.137Z,44.51
2019-04-16T03:10:18.819Z,44.71
2019-04-16T03:12:51.900Z,44.88
2019-04-16T03:15:24.214Z,44.46
2019-04-16T03:17:54.937Z,44.80
2019-04-16T03:20:25.460Z,44.93
2019-04-16T03:22:55.955Z,45.56
2019-04-16T03:25:27.427Z,45.57
2019-04-16T03:27:58.960Z,45.34
2019-04-16T03:30:29.561Z,45.30
2019-04-16T03:32:58.879Z,45.61
2019-04-16T03:35:30.293Z,46.14
2019-04-16T03:38:01.597Z,45.39
2019-04-16T03:40:31.822Z,46.42
2019-04-16T03:43:04.034Z,45.72
2019-04-16T03:45:34.431Z,45.95
2019-04-16T03:48:05.164Z,45.95
2019-04-16T03:50:34.740Z,45.15
2019-04-16T03:53:04.073Z,44.96
2019-04-16T03:55:33.429Z,45.27
2019-04-16T03:58:06.921Z,45.08
2019-04-16T04:00:43.713Z,45.43
2019-04-16T04:03:11.843Z,45.01
2019-04-16T04:05:41.214Z,44.66
2019-04-16T04:08:16.359Z,45.35
2019-04-16T04:10:41.644Z,45.65
2019-04-16T04:13:17.410Z,45.58
2019-04-16T04:15:43.259Z,45.34
2019-04-16T04:18:13.671Z,45.18
2019-04-16T04:23:14.737Z,45.41
2019-04-16T04:25:44.252Z,45.68
2019-04-16T04:28:18.552Z,44.77
2019-04-16T04:30:48.776Z,45.08
2019-04-16T04:33:40.879Z,45.46
2019-04-16T04:36:08.847Z,45.67
2019-04-16T04:38:38.626Z,45.12
2019-04-16T04:41:09.352Z,44.76
2019-04-16T04:43:39.850Z,44.23
2019-04-16T04:46:12.982Z,43.48
2019-04-16T04:48:39.696Z,42.32
2019-04-16T04:51:10.161Z,39.73
2019-04-16T04:53:38.962Z,36.94
2019-04-16T04:56:10.935Z,34.74
2019-04-16T04:58:41.341Z,32.46
2019-04-16T05:01:13.374Z,31.03
2019-04-16T05:03:48.528Z,30.13
2019-04-16T05:06:28.686Z,28.58
2019-04-16T05:09:00.380Z,27.26
2019-04-16T05:11:31.138Z,26.26
2019-04-16T05:14:01.540Z,25.24
2019-04-16T05:16:34.360Z,24.64
2019-04-16T05:19:04.116Z,23.25
2019-04-16T05:21:32.831Z,22.33
2019-04-16T05:24:01.689Z,21.56
2019-04-16T05:26:33.487Z,20.53
2019-04-16T05:29:17.449Z,19.90
2019-04-16T05:31:43.293Z,19.27
2019-04-16T05:34:17.441Z,19.40
2019-04-16T05:36:47.734Z,16.93
2019-04-16T05:39:17.390Z,16.93
2019-04-16T05:41:50.342Z,16.37
2019-04-16T05:44:19.765Z,16.17
2019-04-16T05:46:51.792Z,15.38
2019-04-16T05:49:25.662Z,15.21
2019-04-16T05:51:54.326Z,14.71
2019-04-16T05:54:37.285Z,14.51
2019-04-16T05:57:10.672Z,14.47
2019-04-16T05:59:41.105Z,13.24
2019-04-16T06:02:15.175Z,13.90
2019-04-16T06:04:43.397Z,13.22
2019-04-16T06:07:12.795Z,12.14
2019-04-16T06:09:44.382Z,11.66
2019-04-16T06:12:14.222Z,11.55
2019-04-16T06:15:01.085Z,11.26
2019-04-16T06:17:33.039Z,11.32
2019-04-16T06:20:05.037Z,10.75
2019-04-16T06:22:41.912Z,10.12
2019-04-16T06:25:29.296Z,9.92
2019-04-16T06:28:16.361Z,9.62
2019-04-16T06:30:48.436Z,8.68
2019-04-16T06:33:22.282Z,8.71
2019-04-16T06:36:00.104Z,8.64
2019-04-16T06:38:33.368Z,8.50
2019-04-16T06:41:20.343Z,8.48
2019-04-16T06:43:51.280Z,8.20
2019-04-16T06:46:31.053Z,8.21
2019-04-16T06:49:02.040Z,8.74
2019-04-16T06:51:33.078Z,8.72
2019-04-16T06:54:25.403Z,8.20
2019-04-16T06:57:01.462Z,7.77
2019-04-16T06:59:39.241Z,7.68
2019-04-16T07:02:25.353Z,8.10
2019-04-16T07:04:58.370Z,7.76
2019-04-16T07:07:39.871Z,7.43
2019-04-16T07:10:09.485Z,7.27
2019-04-16T07:12:41.962Z,6.30
2019-04-16T07:15:13.191Z,6.99
2019-04-16T07:17:43.527Z,6.55
2019-04-16T07:20:16.327Z,7.03
2019-04-16T07:22:45.736Z,6.84
2019-04-16T07:25:15.500Z,6.47
2019-04-16T07:27:54.510Z,6.11
2019-04-16T07:30:24.882Z,5.88
2019-04-16T07:32:55.894Z,5.83
2019-04-16T07:35:43.004Z,6.54
2019-04-16T07:38:15.083Z,5.85
2019-04-16T07:41:05.321Z,6.14
2019-04-16T07:43:53.851Z,5.01
2019-04-16T07:46:31.115Z,5.15
2019-04-16T07:49:03.281Z,5.55
2019-04-16T07:51:36.128Z,4.82
2019-04-16T07:54:08.902Z,6.00
2019-04-16T07:56:40.881Z,5.60
2019-04-16T07:59:10.274Z,6.44
2019-04-16T08:01:44.075Z,5.91
2019-04-16T08:04:12.918Z,7.54
2019-04-16T08:06:46.186Z,6.50
2019-04-16T08:09:15.399Z,6.33
2019-04-16T08:11:45.920Z,7.00
2019-04-16T08:14:16.313Z,7.24
2019-04-16T08:16:47.787Z,7.21
2019-04-16T08:19:17.691Z,7.63
2019-04-16T08:21:47.052Z,8.17
2019-04-16T08:24:18.050Z,8.54
2019-04-16T08:26:47.445Z,6.87
2019-04-16T08:29:18.123Z,7.77
2019-04-16T08:31:50.931Z,7.38
2019-04-16T08:34:21.438Z,8.74
2019-04-16T08:36:51.961Z,6.55
2019-04-16T08:39:21.360Z,8.18
2019-04-16T08:41:52.476Z,7.03
2019-04-16T08:44:23.169Z,9.25
2019-04-16T08:46:54.718Z,7.75
2019-04-16T08:49:25.437Z,7.00
2019-04-16T08:51:55.945Z,7.77
2019-04-16T08:54:26.562Z,8.37
2019-04-16T08:56:55.937Z,9.35
2019-04-16T08:59:26.436Z,8.90
2019-04-16T09:01:55.971Z,7.60
2019-04-16T09:04:26.514Z,9.67
2019-04-16T09:07:10.453Z,8.18
2019-04-16T09:09:30.774Z,10.08
2019-04-16T09:12:01.918Z,7.34
2019-04-16T09:14:33.999Z,7.80
2019-04-16T09:17:14.731Z,7.65
2019-04-16T09:19:48.925Z,7.37
2019-04-16T09:22:19.303Z,8.51
2019-04-16T09:24:56.191Z,9.17
2019-04-16T09:27:37.244Z,10.05
2019-04-16T09:30:18.177Z,8.86
2019-04-16T09:32:52.575Z,10.86
2019-04-16T09:35:24.656Z,11.46
2019-04-16T09:37:59.561Z,11.20
2019-04-16T09:40:36.541Z,10.67
2019-04-16T09:43:20.734Z,10.90
2019-04-16T09:45:50.238Z,11.88
2019-04-16T09:48:21.043Z,13.76
2019-04-16T09:50:51.733Z,12.23
2019-04-16T09:53:32.617Z,12.72
2019-04-16T09:55:52.480Z,12.89
2019-04-16T09:58:24.422Z,12.67
2019-04-16T10:01:02.346Z,14.52
2019-04-16T10:03:39.180Z,15.36
2019-04-16T10:06:09.460Z,15.36
2019-04-16T10:08:44.489Z,16.45
2019-04-16T10:11:12.108Z,18.03
2019-04-16T10:13:41.636Z,17.73
2019-04-16T10:16:13.973Z,17.52
2019-04-16T10:18:43.986Z,18.77
2019-04-16T10:21:19.675Z,19.09
2019-04-16T10:24:08.783Z,18.25
2019-04-16T10:26:39.313Z,19.00
2019-04-16T10:29:17.329Z,18.83
2019-04-16T10:31:48.048Z,19.47
2019-04-16T10:34:20.119Z,21.00
2019-04-16T10:36:51.463Z,20.69
2019-04-16T10:39:22.612Z,20.27
2019-04-16T10:42:00.255Z,19.49
2019-04-16T10:44:51.229Z,18.38
2019-04-16T10:47:38.315Z,19.41
2019-04-16T10:50:25.325Z,18.96
2019-04-16T10:53:03.356Z,19.05
2019-04-16T10:55:34.319Z,19.34
2019-04-16T10:58:21.298Z,19.90
2019-04-16T11:00:55.889Z,19.39
2019-04-16T11:03:34.443Z,20.03
2019-04-16T11:06:04.442Z,19.87
2019-04-16T11:08:37.137Z,20.10
2019-04-16T11:11:06.622Z,19.65
2019-04-16T11:13:40.619Z,21.10
2019-04-16T11:16:12.835Z,19.02
2019-04-16T11:18:45.511Z,18.73
2019-04-16T11:21:14.975Z,19.01
2019-04-16T11:23:48.368Z,19.39
2019-04-16T11:26:17.900Z,19.19
2019-04-16T11:28:48.552Z,19.02
2019-04-16T11:31:23.247Z,19.29
2019-04-16T11:33:52.793Z,18.38
2019-04-16T11:36:24.744Z,19.05
2019-04-16T11:38:58.492Z,20.83
2019-04-16T11:41:29.016Z,19.44
2019-04-16T11:44:13.527Z,18.90
2019-04-16T11:46:30.947Z,18.42
2019-04-16T11:49:00.267Z,18.86
2019-04-16T11:51:32.614Z,19.74
2019-04-16T11:54:03.167Z,18.46
2019-04-16T11:56:32.523Z,18.15
2019-04-16T11:59:03.671Z,19.14
2019-04-16T12:01:47.555Z,19.75
2019-04-16T12:04:18.474Z,18.89
2019-04-16T12:06:52.072Z,19.52
2019-04-16T12:09:36.351Z,19.36
2019-04-16T12:12:08.581Z,19.33
2019-04-16T12:14:58.805Z,20.04
2019-04-16T12:17:36.718Z,20.00
2019-04-16T12:20:09.738Z,19.11
2019-04-16T12:22:43.210Z,19.32
2019-04-16T12:25:29.899Z,18.38
2019-04-16T12:28:12.585Z,18.39
2019-04-16T12:30:46.684Z,18.52
2019-04-16T12:33:24.292Z,19.42
2019-04-16T12:35:58.973Z,18.64
2019-04-16T12:38:39.910Z,18.43
2019-04-16T12:41:26.013Z,17.79
2019-04-16T12:44:06.054Z,18.66
2019-04-16T12:46:42.936Z,18.54
2019-04-16T12:49:31.331Z,18.38
2019-04-16T12:52:04.293Z,17.98
2019-04-16T12:54:38.235Z,17.30
2019-04-16T12:57:21.380Z,16.43
2019-04-16T12:59:55.027Z,17.40
2019-04-16T13:02:36.610Z,20.42
2019-04-16T13:05:20.931Z,17.59
2019-04-16T13:07:53.646Z,17.69
2019-04-16T13:10:31.535Z,17.91
2019-04-16T13:13:03.610Z,17.50
2019-04-16T13:15:35.691Z,17.91
2019-04-16T13:18:10.690Z,17.66
2019-04-16T13:20:45.795Z,17.52
2019-04-16T13:23:20.064Z,18.19
2019-04-16T13:26:00.818Z,17.54
2019-04-16T13:28:32.499Z,18.04
2019-04-16T13:31:03.005Z,18.63
2019-04-16T13:33:37.144Z,18.45
2019-04-16T13:36:07.773Z,18.23
2019-04-16T13:38:44.175Z,16.86
2019-04-16T13:41:15.854Z,17.42
2019-04-16T13:43:47.762Z,17.98
2019-04-16T13:46:18.364Z,18.80
2019-04-16T13:49:01.342Z,19.11
2019-04-16T13:51:33.487Z,18.67
2019-04-16T13:54:05.569Z,18.66
2019-04-16T13:56:38.960Z,17.81
2019-04-16T13:59:12.887Z,18.40
2019-04-16T14:01:47.168Z,18.44
2019-04-16T14:04:16.589Z,18.34
2019-04-16T14:06:46.397Z,18.04
2019-04-16T14:09:16.872Z,18.47
2019-04-16T14:11:51.433Z,18.04
2019-04-16T14:14:22.667Z,18.51
2019-04-16T14:16:52.103Z,19.02
2019-04-16T14:19:21.646Z,19.25
2019-04-16T14:21:51.249Z,19.30
2019-04-16T14:24:20.678Z,18.73
2019-04-16T14:26:51.172Z,19.32
2019-04-16T14:29:24.764Z,18.42
2019-04-16T14:31:52.618Z,18.43
2019-04-16T14:34:24.906Z,20.54
2019-04-16T14:36:57.030Z,19.02
2019-04-16T14:39:34.378Z,18.34
2019-04-16T14:42:03.778Z,18.64
2019-04-16T14:44:36.024Z,18.11
2019-04-16T14:47:06.644Z,18.37
2019-04-16T14:49:37.052Z,20.95
2019-04-16T14:52:09.746Z,18.56
2019-04-16T14:54:43.701Z,18.22
2019-04-16T14:57:15.378Z,18.55
2019-04-16T15:00:04.665Z,19.00
2019-04-16T15:02:35.648Z,18.23
2019-04-16T15:05:15.735Z,19.18
2019-04-16T15:07:49.099Z,20.29
2019-04-16T15:10:36.493Z,19.04
2019-04-16T15:13:26.429Z,19.10
2019-04-16T15:16:08.267Z,18.73
2019-04-16T15:18:30.987Z,18.80
2019-04-16T15:21:10.587Z,19.33
2019-04-16T15:23:43.767Z,19.65
2019-04-16T15:26:24.452Z,19.74
2019-04-16T15:28:58.516Z,19.60
2019-04-16T15:31:40.829Z,19.96
2019-04-16T15:34:17.820Z,18.98
2019-04-16T15:36:55.843Z,19.27
2019-04-16T15:39:37.004Z,19.26
2019-04-16T15:42:27.184Z,19.77
2019-04-16T15:45:08.474Z,19.20
2019-04-16T15:47:56.604Z,18.88
2019-04-16T15:50:28.777Z,18.63
2019-04-16T15:53:02.518Z,18.59
2019-04-16T15:55:39.700Z,18.58
2019-04-16T15:58:11.997Z,19.76
2019-04-16T16:00:57.905Z,19.55
2019-04-16T16:03:30.246Z,19.24
2019-04-16T16:06:16.873Z,19.17
2019-04-16T16:08:49.800Z,19.32
2019-04-16T16:11:31.244Z,19.78
2019-04-16T16:14:02.106Z,19.18
2019-04-16T16:16:41.708Z,18.69
2019-04-16T16:19:04.987Z,18.81
2019-04-16T16:21:37.449Z,18.97
2019-04-16T16:24:08.461Z,19.50
2019-04-16T16:26:38.989Z,20.09
2019-04-16T16:29:08.367Z,20.21
2019-04-16T16:31:40.111Z,20.59
2019-04-16T16:34:14.076Z,19.78
2019-04-16T16:36:46.232Z,20.27
2019-04-16T16:39:15.627Z,20.52
2019-04-16T16:41:46.683Z,21.05
2019-04-16T16:44:17.155Z,20.75
2019-04-16T16:46:59.033Z,20.87
2019-04-16T16:49:28.839Z,20.82
2019-04-16T16:52:18.975Z,20.76
2019-04-16T16:54:51.066Z,21.16
2019-04-16T16:57:25.112Z,21.21
2019-04-16T16:59:56.179Z,21.17
2019-04-16T17:02:28.534Z,21.18
2019-04-16T17:05:00.663Z,21.15
2019-04-16T17:07:32.080Z,21.10
2019-04-16T17:10:00.572Z,21.46
2019-04-16T17:12:30.263Z,22.84
2019-04-16T17:15:02.552Z,22.42
2019-04-16T17:17:32.953Z,23.05
2019-04-16T17:20:03.571Z,23.62
2019-04-16T17:22:35.958Z,23.91
2019-04-16T17:25:10.422Z,24.02
2019-04-16T17:27:51.142Z,24.06
2019-04-16T17:30:11.873Z,23.84
2019-04-16T17:32:43.026Z,24.14
2019-04-16T17:35:15.466Z,24.24
2019-04-16T17:37:44.606Z,24.22
2019-04-16T17:40:18.763Z,24.37
2019-04-16T17:42:50.794Z,23.71
2019-04-16T17:45:22.770Z,23.94
2019-04-16T17:48:11.036Z,24.26
2019-04-16T17:50:55.017Z,24.17
2019-04-16T17:53:33.587Z,23.99
2019-04-16T17:56:20.395Z,23.64
2019-04-16T17:58:52.898Z,23.81
2019-04-16T18:01:44.368Z,23.96
2019-04-16T18:04:32.641Z,24.04
2019-04-16T18:07:13.497Z,23.77
2019-04-16T18:10:01.909Z,23.93
2019-04-16T18:12:37.294Z,23.93
2019-04-16T18:15:26.696Z,23.32
2019-04-16T18:18:01.296Z,23.74
2019-04-16T18:20:31.423Z,23.75
2019-04-16T18:23:13.461Z,23.90
2019-04-16T18:25:55.651Z,24.27
2019-04-16T18:28:18.267Z,23.93
2019-04-16T18:30:52.627Z,23.79
2019-04-16T18:33:41.008Z,24.20
2019-04-16T18:36:30.211Z,23.95
2019-04-16T18:39:04.945Z,23.98
2019-04-16T18:41:36.590Z,24.04
2019-04-16T18:44:13.121Z,23.98
2019-04-16T18:46:55.964Z,24.56
2019-04-16T18:49:26.963Z,24.49
2019-04-16T18:51:57.301Z,24.21
2019-04-16T18:54:29.783Z,24.71
2019-04-16T18:56:59.157Z,24.35
2019-04-16T18:59:28.594Z,24.49
2019-04-16T19:02:12.070Z,24.97
2019-04-16T19:04:44.879Z,24.71
2019-04-16T19:07:15.757Z,24.67
2019-04-16T19:09:45.085Z,24.57
2019-04-16T19:12:14.583Z,24.85
2019-04-16T19:14:45.261Z,24.99
2019-04-16T19:17:17.962Z,25.25
2019-04-16T19:19:50.446Z,25.31
2019-04-16T19:22:22.028Z,25.11
2019-04-16T19:24:52.464Z,25.08
2019-04-16T19:27:27.904Z,25.10
2019-04-16T19:29:56.474Z,25.00
2019-04-16T19:32:27.774Z,24.88
2019-04-16T19:35:09.561Z,24.67
2019-04-16T19:37:33.349Z,25.30
2019-04-16T19:40:03.309Z,24.90
2019-04-16T19:42:32.913Z,24.90
2019-04-16T19:45:02.466Z,26.07
2019-04-16T19:47:35.358Z,25.07
2019-04-16T19:50:04.412Z,25.20
2019-04-16T19:52:33.773Z,24.74
2019-04-16T19:55:03.128Z,25.56
2019-04-16T19:57:32.535Z,25.14
2019-04-16T20:00:02.891Z,24.98
2019-04-16T20:02:34.029Z,26.03
2019-04-16T20:05:04.585Z,25.70
2019-04-16T20:07:34.948Z,26.13
2019-04-16T20:10:06.596Z,26.59
2019-04-16T20:12:37.021Z,26.62
2019-04-16T20:15:09.820Z,26.85
2019-04-16T20:17:40.217Z,26.84
2019-04-16T20:20:09.729Z,26.94
2019-04-16T20:22:40.105Z,27.13
2019-04-16T20:25:10.707Z,27.06
2019-04-16T20:27:40.807Z,27.87
2019-04-16T20:30:13.395Z,28.22
2019-04-16T20:32:44.229Z,27.77
2019-04-16T20:35:17.914Z,27.54
2019-04-16T20:37:45.862Z,27.01
2019-04-16T20:40:17.813Z,28.86
2019-04-16T20:42:46.197Z,26.96
2019-04-16T20:45:16.559Z,27.67
2019-04-16T20:47:46.971Z,27.70
2019-04-16T20:50:20.491Z,28.38
2019-04-16T20:52:49.447Z,28.94
2019-04-16T20:55:23.088Z,28.43
2019-04-16T20:57:55.275Z,28.53
2019-04-16T21:00:33.208Z,29.32
2019-04-16T21:03:03.984Z,29.50
2019-04-16T21:05:35.732Z,29.25
2019-04-16T21:08:06.653Z,28.08
2019-04-16T21:10:37.335Z,28.10
2019-04-16T21:13:06.800Z,28.32
2019-04-16T21:15:36.163Z,27.84
2019-04-16T21:18:10.777Z,28.33
2019-04-16T21:20:39.149Z,29.92
2019-04-16T21:23:09.666Z,29.29
2019-04-16T21:25:39.028Z,30.49
2019-04-16T21:28:09.967Z,29.88
2019-04-16T21:30:42.868Z,31.10
2019-04-16T21:33:13.690Z,31.17
2019-04-16T21:35:45.686Z,32.04
2019-04-16T21:38:22.663Z,31.26
2019-04-16T21:40:52.773Z,31.01
2019-04-16T21:43:23.562Z,31.47
2019-04-16T21:45:53.980Z,31.15
2019-04-16T21:48:23.893Z,30.87
2019-04-16T21:50:57.091Z,31.75
2019-04-16T21:53:27.964Z,32.50
2019-04-16T21:55:58.453Z,33.36
2019-04-16T21:58:28.816Z,31.92
2019-04-16T22:01:04.297Z,30.59
2019-04-16T22:03:34.267Z,30.53
2019-04-16T22:06:04.840Z,30.60
2019-04-16T22:08:35.140Z,30.23
2019-04-16T22:11:08.480Z,30.42
2019-04-16T22:13:40.689Z,30.58
2019-04-16T22:16:10.228Z,30.80
2019-04-16T22:18:41.578Z,30.06
2019-04-16T22:21:11.299Z,29.83
2019-04-16T22:23:41.762Z,30.08
2019-04-16T22:26:11.235Z,30.16
2019-04-16T22:28:44.096Z,30.11
2019-04-16T22:31:12.760Z,30.54
2019-04-16T22:33:43.165Z,29.99
2019-04-16T22:36:13.688Z,30.05
2019-04-16T22:38:45.645Z,30.92
2019-04-16T22:41:27.304Z,30.67
2019-04-16T22:44:00.046Z,32.02
2019-04-16T22:46:42.348Z,32.76
2019-04-16T22:49:14.006Z,32.58
2019-04-16T22:51:44.622Z,32.46
2019-04-16T22:54:17.619Z,32.97
2019-04-16T22:56:49.194Z,32.69
2019-04-16T22:59:22.524Z,32.01
2019-04-16T23:01:54.913Z,32.25
2019-04-16T23:04:26.037Z,32.36
2019-04-16T23:06:57.500Z,31.98
2019-04-16T23:09:27.886Z,32.20
2019-04-16T23:12:01.135Z,32.58
2019-04-16T23:14:31.668Z,33.32
2019-04-16T23:17:02.672Z,33.19
2019-04-16T23:19:33.078Z,32.25
2019-04-16T23:22:04.736Z,31.94
2019-04-16T23:24:35.505Z,31.54
2019-04-16T23:27:05.669Z,31.44
2019-04-16T23:29:36.906Z,31.72
2019-04-16T23:32:07.744Z,32.89
2019-04-16T23:34:37.985Z,33.51
2019-04-16T23:37:09.680Z,33.75
2019-04-16T23:39:39.091Z,34.21
2019-04-16T23:42:09.866Z,34.71
2019-04-16T23:44:46.058Z,35.25
2019-04-16T23:47:33.026Z,35.29
2019-04-16T23:50:05.099Z,35.93
2019-04-16T23:52:37.186Z,36.26
2019-04-16T23:55:10.091Z,36.06
2019-04-16T23:57:42.275Z,35.90
